48ème Rallye National de la Giraglia
Championnat de France des Rallyes 2ème Division
1 1 TROJANI Pascal/VESPERINI Jean-Noel Citroën Ds3 A 8W 13:54,0 99km/h
2 2 NAVARRA Francois-Frederic/TYRAN Mathieu Ford Fiesta A 8W 14:01,6 +00:07,6 +00:07,6
3 3 ALERINI Paul/VERDURI Olivier Ford Fiesta A 8W 14:10,7 +00:16,7 +00:09,1
4 7 MANZAGOL Jean-Marc/PATRONE Etienne Ford Fiesta R 5 14:11,8 +00:17,8 +00:01,1
5 6 LEANDRI Jean-Mathieu/GORGUILO Anthony Skoda Fabia R 5 14:12,6 +00:18,6 +00:00,8
6 14 BIANCO Dominique/BERNACCHI Francois-Jean Peugeot 207 S2000 A 7S 14:49,7 +00:55,7 +00:37,1
7 60 FRAYMOUTH François/FELICELLI Romain Peugeot 208 R 2 15:07,5 +01:13,5 +00:17,8
8 5 SIMONETTI Robert/SIMONETTI Celia Citroën Ds3 A 8W 15:13,3 +01:19,3 +00:05,8
9 32 FLORI Jean-Pierre/GARCIA Dann Renault Clio Ragnotti F2 14 15:17,6 +01:23,6 +00:04,3
10 10 VILLORESI Christian/GIUDICELLI Cyril Skoda Fabia R 5 15:19,8 +01:25,8 +00:02,2
11 61 MICHELI Hugo/RAFFAELLI Yoann Peugeot 208 R 2 15:20,6 +01:26,6 +00:00,8
12 36 JAUMON Lionel/ROQUE Cyril Renault Clio 3 Rs F2 14 15:22,7 +01:28,7 +00:02,1
13 9 POLIDORI Frédéric/GOIA Laurent Ford Fiesta R 5 15:23,9 +01:29,9 +00:01,2
14 19 DEFENDINI Romain/GHERARDI Gérard Citroën Ds3 R 3 15:26,3 +01:32,3 +00:02,4
15 24 VILLARET Benjamin/OBRECHT Justine Renault Clio R3 R 3 15:28,7 +01:34,7 +00:02,4
16 11 ANTONINI Louis/ESCARTEFIGUE Jules Ford Fiesta R 5 15:28,9 +01:34,9 +00:00,2
17 77 GANDOLFI Anthony/FINOCCHIARO Sébastien Citroën Saxo F2 13 15:34,9 +01:40,9 +00:06,0
18 85 PERETTI Myriam/SALINI Laura Peugeot 106 FA 6 15:35,0 +01:41,0 +00:00,1
19 27 ROSSI Yannick/VOLPEI Baptiste Mitsubishi Evolution 9 N 4 15:37,0 +01:43,0 +00:02,0
20 50 FERRARI Cédric/LAPINA Michela Peugeot 106 S16 FA 6K 15:45,8 +01:51,8 +00:08,8
21 28 AGOSTINI Anthony/ROYER Jérôme Renault Megane N 4 15:46,7 +01:52,7 +00:00,9
22 80 DIFEO José/DIFEO Julien Citroën C2 F2 13 15:47,7 +01:53,7 +00:01,0
23 21 CHIARONI Pascal/SANTINI Cédric Renault Clio R3 Max R 3 15:47,9 +01:53,9 +00:00,2
24 63 AGOSTINI Lucien/AGOSTINI Guillaume Peugeot 208 R 2B 15:48,3 +01:54,3 +00:00,4
25 16 BONEL Antony/MANENT Roselyne Opel Speedster Turbo GT 10 15:50,8 +01:56,8 +00:02,5
26 38 RICO Michel/RICO Benjamin BMW --- F2 14 15:52,2 +01:58,2 +00:01,4
27 33 CAVILLAC Franck/CORSI Frédéric Renault Clio Rs F2 14 15:53,9 +01:59,9 +00:01,7
28 62 SOREDA Pierre/BONIFET Julien Citroën C2 R2 Max R 2 15:58,5 +02:04,5 +00:04,6
29 54 COMOLE Lionel/DINI Gilbert Peugeot 106 S16 A 6K 16:00,0 +02:06,0 +00:01,5
30 73 ARAGNEAU Philippe/MAZOTTI Francis Renault Clio FN 3 16:00,8 +02:06,8 +00:00,8
31 15 ROGNONI Daniel/BEAULIEU Noelise Porsche 911 GT 10 16:03,5 +02:09,5 +00:02,7
32 86 CASALE Julien/MORA Nicolas Citroën Saxo Vts FA 6 16:03,9 +02:09,9 +00:00,4
33 57 BRAZ Paulo/SCICOLONE Edouard Citroën C2 FA 6K 16:04,6 +02:10,6 +00:00,7
34 49 FIGARI Luca/FIGARI Morgan Renault Clio Super 1600 FA 6K 16:06,3 +02:12,3 +00:01,7
35 64 MAESTRACCI François/CASANOVA Sébastien Peugeot 208 R 2 16:06,4 +02:12,4 +00:00,1
36 53 GHELARDINI Francois-Marie/ROCCA SERRA Laury Peugeot 206 Xs FA 6K 16:09,2 +02:15,2 +00:02,8
37 79 FRANCISCI Yannick/VINCIGUERRA Lisa-Marie Peugeot 106 S16 F2 13 16:10,2 +02:16,2 +00:01,0
38 31 GREGORY Ugo/GREGORY Coralie Renault Clio Rs F2 14 16:10,6 +02:16,6 +00:00,4
39 26 BORT Julien/ZAVARSKY Alexy Renault Clio R3 Max R 3 16:16,3 +02:22,3 +00:05,7
40 34 VANGIONI Francesco/THIERS Julien Renault Clio 3 Rs F2 14 16:16,3 +02:22,3
41 17 ALEGRE Francis/MURATI Laura BMW 325I FA 8 16:17,0 +02:23,0 +00:00,7
42 74 DONATI Xavier/CIAVALDINI France Renault Clio Williams FN 3 16:18,0 +02:24,0 +00:01,0
43 51 MARIANI Anthony/PIEVE Laura Peugeot 206 Xs FA 6K 16:19,5 +02:25,5 +00:01,5
44 22 ETTORI Jean-Dominique/GUERRIERI Patrick Citroën Ds3 R 3 16:19,7 +02:25,7 +00:00,2
45 66 ANFRIANI Paul-Etienne/RICOVERI Mallaury Citroën C2 R 2B 16:20,8 +02:26,8 +00:01,1
46 81 CLAUDE Christophe/DELATTRE Judicael Citroën C2 F2 13 16:22,5 +02:28,5 +00:01,7
47 55 MARTELLI Cyril/BRUN Pierre-Marie Peugeot 206 Xs FA 6K 16:24,9 +02:30,9 +00:02,4
48 4 MICHELI Joseph/MICHELI Luna-Stella Ford Fiesta A 8W 16:30,5 +02:36,5 +00:05,6
49 70 FABRA Jérémy/PONTIER Numa Renault Clio 16S FA 7 16:38,5 +02:44,5 +00:08,0
50 67 DE MEYER Jean-Michel/FRATTI Eric Peugeot 208 R 2 16:40,5 +02:46,5 +00:02,0
51 89 NAPOLI MELIO Michaël/BERNARDI Dominique Citroën C2 FA 6 16:43,0 +02:49,0 +00:02,5
52 23 AGOSTINI Quentin/BARRAL Florian Peugeot 207 Rc R 3 16:46,8 +02:52,8 +00:03,8
53 30 LAUZERTE Alain/BARBE Isabelle Renault Megane N 4 16:48,6 +02:54,6 +00:01,8
54 98 NEGRI Jean-Michel/NEGRI Michel Peugeot 106 S16 FN 2 16:54,0 +03:00,0 +00:05,4
55 95 BERNOUS Bouchta/MARTINI Andrea Citroën Saxo Vts FN 2 16:59,0 +03:05,0 +00:05,0
56 29 LIMELETTE Marc/PONSOT Francois-Dominique Ford Escort Cosworth FN 4 17:11,2 +03:17,2 +00:12,2
57 82 DAMIANI Marcel/D'ANGELO Enzo Citroën Saxo F2 13 17:11,9 +03:17,9 +00:00,7
58 93 MARIINI Michaël/REAL Thibaut Citroën Saxo Vts FN 2 17:13,3 +03:19,3 +00:01,4
59 97 BORSELLI Charles/MANZONI Cédric Peugeot 106 FN 2 17:16,5 +03:22,5 +00:03,2
60 105 NICOLI Gérard/GALTIERI Marie-Flore Citroën Ax Sport FN 1 17:19,6 +03:25,6 +00:03,1
61 45 VANGIONI Graziano/BERTIN-MAURICE Kévin Renault Clio Rs F2 14 17:23,0 +03:29,0 +00:03,4
62 56 BALESTRACCI Stéphanie/CHIAPPE Patrick Peugeot 206 Xs FA 6K 17:25,9 +03:31,9 +00:02,9
63 104 BIAGGI Florian/ESCACH Matthieu Peugeot 106 S16 N 2S 18:09,0 +04:15,0 +00:43,1
64 102 TROMBI Philippe/NICOLAI Michaël Peugeot 106 Xsi F2 12 18:21,2 +04:27,2 +00:12,2
65 44 MORGANTI Antoine/BIAGGI Yves Peugeot 205 Gti F2 14 18:26,3 +04:32,3 +00:05,1
Clt Equipage Voiture Gr/Cl Temps Ecart 1er Ecart préc. Catégories
Commentaires: © PatricK Soft  
(Temps forfaitaires=couleur bleue)
Classés:65

Epreuve: Groupe: Catégorie:

 
Retour
Classement ES4-Morsiglia - Cagnano 1 (23.000 km)